Time,TemperatureF,DewpointF,PressureIn,WindDirection,WindDirectionDegrees,WindSpeedMPH,WindSpeedGustMPH,Humidity,HourlyPrecipIn,Conditions,Clouds,dailyrainin,SoftwareType,DateUTC
2013-08-30 00:12:00,62.0,58.0,29.88,East,80,0.0,0.0,87,0.00,,,0.05,,2013-08-30 06:12:00,
2013-08-30 00:22:00,63.0,59.0,29.89,East,80,0.0,0.0,87,0.00,,,0.05,,2013-08-30 06:22:00,
2013-08-30 00:53:00,63.0,59.0,29.89,East,80,0.0,0.0,86,0.00,,,0.05,,2013-08-30 06:53:00,
2013-08-30 01:11:00,63.0,59.0,29.90,East,80,0.0,0.0,86,0.00,,,0.05,,2013-08-30 07:11:00,
2013-08-30 01:21:00,62.0,58.0,29.90,East,80,0.0,0.0,87,0.00,,,0.05,,2013-08-30 07:21:00,
2013-08-30 01:53:00,60.0,57.0,29.90,East,80,0.0,1.0,89,0.00,,,0.05,,2013-08-30 07:53:00,
2013-08-30 02:11:00,60.0,57.0,29.90,East,80,0.0,0.0,90,0.00,,,0.05,,2013-08-30 08:11:00,
2013-08-30 02:22:00,60.0,57.0,29.90,East,80,0.0,0.0,89,0.00,,,0.05,,2013-08-30 08:22:00,
2013-08-30 02:42:00,60.0,57.0,29.89,East,80,0.0,0.0,90,0.00,,,0.05,,2013-08-30 08:42:00,
2013-08-30 02:52:00,60.0,57.0,29.89,East,80,0.0,0.0,90,0.00,,,0.05,,2013-08-30 08:52:00,
2013-08-30 03:12:00,60.0,57.0,29.89,East,80,0.0,0.0,89,0.00,,,0.05,,2013-08-30 09:12:00,
2013-08-30 03:22:00,60.0,57.0,29.90,East,80,0.0,0.0,89,0.00,,,0.05,,2013-08-30 09:22:00,
2013-08-30 03:44:00,59.0,56.0,29.89,East,80,0.0,0.0,90,0.00,,,0.05,,2013-08-30 09:44:00,
2013-08-30 03:53:00,58.0,55.0,29.90,East,80,0.0,4.0,89,0.00,,,0.05,,2013-08-30 09:53:00,
2013-08-30 04:12:00,58.0,55.0,29.90,East,80,0.0,0.0,89,0.00,,,0.05,,2013-08-30 10:12:00,
2013-08-30 04:23:00,58.0,55.0,29.90,East,80,0.0,0.0,89,0.00,,,0.05,,2013-08-30 10:23:00,
2013-08-30 04:43:00,58.0,55.0,29.90,East,80,0.0,3.0,89,0.00,,,0.05,,2013-08-30 10:43:00,
2013-08-30 04:53:00,58.0,55.0,29.90,East,80,0.0,0.0,89,0.00,,,0.05,,2013-08-30 10:53:00,
2013-08-30 05:12:00,57.0,54.0,29.90,East,80,0.0,0.0,90,0.00,,,0.05,,2013-08-30 11:12:00,
2013-08-30 05:22:00,58.0,55.0,29.90,East,80,0.0,0.0,89,0.00,,,0.05,,2013-08-30 11:22:00,
2013-08-30 05:41:00,57.0,54.0,29.90,East,80,0.0,0.0,89,0.00,,,0.05,,2013-08-30 11:41:00,
2013-08-30 05:52:00,57.0,54.0,29.90,East,80,0.0,0.0,89,0.00,,,0.05,,2013-08-30 11:52:00,
2013-08-30 06:12:00,57.0,54.0,29.90,East,80,0.0,4.0,90,0.00,,,0.05,,2013-08-30 12:12:00,
2013-08-30 06:21:00,56.0,53.0,29.90,East,80,0.0,0.0,91,0.00,,,0.05,,2013-08-30 12:21:00,
2013-08-30 06:41:00,56.0,53.0,29.90,East,80,0.0,0.0,91,0.00,,,0.05,,2013-08-30 12:41:00,
2013-08-30 06:52:00,56.0,53.0,29.91,East,80,0.0,2.0,91,0.00,,,0.05,,2013-08-30 12:52:00,
2013-08-30 07:11:00,56.0,53.0,29.91,East,80,0.0,3.0,91,0.00,,,0.05,,2013-08-30 13:11:00,
2013-08-30 07:21:00,56.0,53.0,29.91,East,80,2.0,5.0,91,0.01,,,0.06,,2013-08-30 13:21:00,
2013-08-30 07:52:00,57.0,54.0,29.92,East,80,0.0,5.0,89,0.01,,,0.06,,2013-08-30 13:52:00,
2013-08-30 08:11:00,57.0,53.0,29.92,East,80,0.0,3.0,88,0.01,,,0.06,,2013-08-30 14:11:00,
2013-08-30 08:21:00,59.0,55.0,29.92,East,80,0.0,3.0,88,0.00,,,0.06,,2013-08-30 14:21:00,
2013-08-30 08:52:00,61.0,56.0,29.92,East,80,0.0,7.0,84,0.00,,,0.06,,2013-08-30 14:52:00,
2013-08-30 09:11:00,62.0,56.0,29.92,East,80,1.0,5.0,81,0.00,,,0.06,,2013-08-30 15:11:00,
2013-08-30 09:22:00,64.0,58.0,29.91,East,80,0.0,3.0,80,0.00,,,0.06,,2013-08-30 15:22:00,
2013-08-30 09:43:00,66.0,57.0,29.91,East,80,0.0,0.0,74,0.00,,,0.06,,2013-08-30 15:43:00,
2013-08-30 09:54:00,70.0,59.0,29.92,East,80,0.0,0.0,68,0.00,,,0.06,,2013-08-30 15:54:00,
2013-08-30 10:13:00,70.0,58.0,29.91,East,80,0.0,0.0,66,0.00,,,0.06,,2013-08-30 16:13:00,
2013-08-30 10:24:00,72.0,58.0,29.91,East,80,0.0,0.0,62,0.00,,,0.06,,2013-08-30 16:24:00,
2013-08-30 10:42:00,74.0,58.0,29.90,East,80,0.0,0.0,58,0.00,,,0.06,,2013-08-30 16:42:00,
2013-08-30 10:53:00,76.0,58.0,29.90,East,80,0.0,0.0,54,0.00,,,0.06,,2013-08-30 16:53:00,
2013-08-30 11:13:00,77.0,59.0,29.89,East,80,0.0,0.0,54,0.00,,,0.06,,2013-08-30 17:13:00,
2013-08-30 11:23:00,78.0,61.0,29.89,East,80,0.0,1.0,56,0.00,,,0.06,,2013-08-30 17:23:00,
2013-08-30 11:52:00,80.0,61.0,29.88,East,80,0.0,3.0,52,0.00,,,0.06,,2013-08-30 17:52:00,
2013-08-30 12:12:00,82.0,57.0,29.87,East,80,0.0,2.0,43,0.00,,,0.06,,2013-08-30 18:12:00,
2013-08-30 12:21:00,84.0,58.0,29.86,East,80,1.0,4.0,42,0.00,,,0.06,,2013-08-30 18:21:00,
2013-08-30 12:52:00,85.0,58.0,29.85,East,80,0.0,7.0,40,0.00,,,0.06,,2013-08-30 18:52:00,
2013-08-30 13:12:00,86.0,57.0,29.84,East,80,0.0,3.0,38,0.00,,,0.06,,2013-08-30 19:12:00,
2013-08-30 13:21:00,88.0,54.0,29.83,East,80,0.0,3.0,32,0.00,,,0.06,,2013-08-30 19:21:00,
2013-08-30 13:53:00,91.0,49.0,29.81,East,80,0.0,5.0,24,0.00,,,0.06,,2013-08-30 19:53:00,
2013-08-30 14:11:00,92.0,45.0,29.80,East,80,0.0,10.0,20,0.00,,,0.06,,2013-08-30 20:11:00,
2013-08-30 14:22:00,93.0,45.0,29.80,East,80,0.0,3.0,19,0.00,,,0.06,,2013-08-30 20:22:00,
2013-08-30 14:52:00,93.0,43.0,29.79,East,80,0.0,5.0,18,0.00,,,0.06,,2013-08-30 20:52:00,
2013-08-30 15:11:00,93.0,45.0,29.79,East,80,0.0,3.0,19,0.00,,,0.06,,2013-08-30 21:11:00,
2013-08-30 15:21:00,92.0,46.0,29.79,East,80,0.0,0.0,21,0.00,,,0.06,,2013-08-30 21:21:00,
2013-08-30 15:54:00,89.0,52.0,29.80,East,80,5.0,13.0,28,0.00,,,0.06,,2013-08-30 21:54:00,
2013-08-30 16:54:00,85.0,49.0,29.81,SSE,155,0.0,6.0,29,0.00,,,0.06,,2013-08-30 22:54:00,
2013-08-30 17:12:00,86.0,47.0,29.80,SSE,155,0.0,4.0,26,0.00,,,0.06,,2013-08-30 23:12:00,
2013-08-30 17:22:00,87.0,49.0,29.79,SSE,155,0.0,4.0,27,0.00,,,0.02,,2013-08-30 23:22:00,
2013-08-30 17:53:00,86.0,53.0,29.77,ENE,76,2.0,9.0,32,0.00,,,0.02,,2013-08-30 23:53:00,
2013-08-30 18:11:00,86.0,54.0,29.77,ENE,77,0.0,4.0,33,0.00,,,0.02,,2013-08-31 00:11:00,
2013-08-30 18:21:00,86.0,55.0,29.77,ENE,76,0.0,2.0,35,0.00,,,0.01,,2013-08-31 00:21:00,
2013-08-30 18:42:00,86.0,53.0,29.76,ENE,76,0.0,3.0,32,0.00,,,0.01,,2013-08-31 00:42:00,
2013-08-30 18:52:00,87.0,51.0,29.75,ENE,77,0.0,5.0,29,0.00,,,0.01,,2013-08-31 00:52:00,
2013-08-30 19:11:00,86.0,48.0,29.75,ENE,77,0.0,5.0,27,0.00,,,0.01,,2013-08-31 01:11:00,
2013-08-30 19:21:00,86.0,52.0,29.74,ENE,76,0.0,3.0,31,0.00,,,0.01,,2013-08-31 01:21:00,
2013-08-30 19:42:00,83.0,54.0,29.75,ENE,76,0.0,3.0,37,0.00,,,0.01,,2013-08-31 01:42:00,
2013-08-30 19:52:00,81.0,52.0,29.75,ENE,76,0.0,4.0,37,0.00,,,0.01,,2013-08-31 01:52:00,
2013-08-30 20:11:00,80.0,48.0,29.75,ENE,77,0.0,4.0,33,0.00,,,0.01,,2013-08-31 02:11:00,
2013-08-30 20:22:00,81.0,47.0,29.75,ENE,77,0.0,2.0,30,0.00,,,0.01,,2013-08-31 02:22:00,
2013-08-30 20:42:00,80.0,46.0,29.75,ENE,77,0.0,1.0,30,0.00,,,0.01,,2013-08-31 02:42:00,
2013-08-30 20:52:00,80.0,47.0,29.75,ENE,76,0.0,0.0,31,0.00,,,0.01,,2013-08-31 02:52:00,
2013-08-30 21:12:00,78.0,49.0,29.75,ENE,77,0.0,0.0,36,0.00,,,0.01,,2013-08-31 03:12:00,
2013-08-30 21:22:00,76.0,49.0,29.75,ENE,77,0.0,0.0,38,0.00,,,0.01,,2013-08-31 03:22:00,
2013-08-30 21:54:00,73.0,51.0,29.75,ENE,76,0.0,0.0,46,0.00,,,0.01,,2013-08-31 03:54:00,
2013-08-30 22:13:00,72.0,52.0,29.75,ENE,77,0.0,0.0,50,0.00,,,0.01,,2013-08-31 04:13:00,
2013-08-30 22:24:00,71.0,54.0,29.75,ENE,77,0.0,0.0,54,0.00,,,0.01,,2013-08-31 04:24:00,
2013-08-30 22:54:00,69.0,53.0,29.75,ENE,76,0.0,1.0,57,0.00,,,0.01,,2013-08-31 04:54:00,
2013-08-30 23:13:00,68.0,51.0,29.75,ENE,77,2.0,7.0,54,0.00,,,0.01,,2013-08-31 05:13:00,
2013-08-30 23:23:00,69.0,51.0,29.75,ENE,77,0.0,0.0,53,0.00,,,0.01,,2013-08-31 05:23:00,
2013-08-30 23:42:00,67.0,51.0,29.75,ENE,77,0.0,4.0,56,0.00,,,0.01,,2013-08-31 05:42:00,
2013-08-30 23:52:00,68.0,51.0,29.75,ENE,77,0.0,5.0,54,0.00,,,0.01,,2013-08-31 05:52:00,